• Join FlightAware (Why Join?)
  • Login
  • US Flag 
05:31AM EDT


 

Airport Tracker/Info


-or-


 

Live Flight TrackerFlight Track Log ✈ AAL1633 ✈ 03-Jul-2014 ✈ KMSP - KDFW

Flight Track Log - Related Links

Times and Time Zones

All times are in EDT time to prevent confusion due to time zone crossing. See the AAL1633 flight status page for this flight to view local times or setup timezone preferences in your user account.

Time Position Orientation Groundspeed Altitude Reporting Facility
EDT Latitude Longitude Course Direction KTS MPH feet Rate Location/Type
03:06PM 44.9000 -93.2667 257° West 182 209 2,400  Level Minneapolis TRACON
03:07PM 44.8833 -93.3667 257° West 232 267 4,100 1,860 Climbing Minneapolis TRACON
03:07PM 44.8811 -93.4286 267° West 243 280 5,600 2,400 Climbing Minneapolis Center
03:08PM 44.8253 -93.4964 221° Southwest 286 329 8,300 2,220 Climbing Minneapolis Center
03:12PM 44.5347 -93.5900 194° South 366 421 15,000 1,980 Climbing Minneapolis Center
03:14PM 44.3458 -93.6856 200° South 389 448 18,700 1,800 Climbing Minneapolis Center
03:15PM 44.2311 -93.7803 211° Southwest 396 456 20,700 1,500 Climbing Minneapolis Center
03:18PM 43.9217 -94.0269 194° South 434 499 25,100 1,260 Climbing Minneapolis Center
03:19PM 43.8136 -94.1128 210° Southwest 444 511 26,100 1,260 Climbing Minneapolis Center
03:20PM 43.6617 -94.1750 197° South 477 549 27,800 1,260 Climbing Minneapolis Center
03:21PM 43.5289 -94.2072 190° South 479 551 28,800 900 Climbing Minneapolis Center
03:23PM 43.2631 -94.2694 193° South 492 566 30,600 960 Climbing Minneapolis Center
03:24PM 43.1253 -94.3028 190° South 499 574 31,900 660 Climbing Minneapolis Center
03:25PM 42.9828 -94.3344 189° South 496 571 32,000  Climbing Minneapolis Center
03:27PM 42.6928 -94.4022 193° South 495 570 32,000  Level Kansas City Center
03:28PM 42.5589 -94.4339 190° South 494 568 32,000  Level Kansas City Center
03:29PM 42.4300 -94.4581 188° South 486 559 32,000  Level Kansas City Center
03:30PM 42.2978 -94.4903 190° South 485 558 32,000  Level Kansas City Center
03:31PM 42.1336 -94.5297 190° South 488 562 32,000  Level Minneapolis Center
03:33PM 41.8756 -94.5875 189° South 485 558 32,000  Level Kansas City Center
03:34PM 41.7447 -94.6183 190° South 483 556 32,000  Level Kansas City Center
03:35PM 41.6039 -94.6531 190° South 480 552 32,000  Level Minneapolis Center
03:39PM 41.1872 -94.7453 186° South 475 547 32,000  Level Minneapolis Center
03:40PM 41.0564 -94.7747 190° South 474 545 32,000 480 Level Minneapolis Center
03:42PM 40.7925 -94.8322 189° South 465 535 33,600 600 Climbing Kansas City Center
03:43PM 40.6733 -94.8589 190° South 461 531 34,000 180 Climbing Minneapolis Center
03:44PM 40.5486 -94.8850 189° South 457 526 34,000  Level Minneapolis Center
03:45PM 40.3983 -94.9175 189° South 457 526 34,000  Level Minneapolis Center
03:46PM 40.2942 -94.9431 191° South 456 525 34,000  Level Kansas City Center
03:47PM 40.1692 -94.9694 189° South 455 524 34,000  Level Kansas City Center
03:48PM 40.0183 -95.0000 189° South 457 526 34,000  Level Kansas City Center
03:49PM 39.8936 -95.0256 189° South 457 526 34,000  Level Kansas City Center
03:50PM 39.7689 -95.0533 190° South 456 525 34,000  Level Kansas City Center
03:51PM 39.6450 -95.0803 190° South 453 521 34,000  Level Kansas City Center
03:52PM 39.5211 -95.1075 190° South 453 521 34,000  Level Kansas City Center
03:53PM 39.3731 -95.1386 189° South 453 521 34,000  Level Kansas City Center
03:54PM 39.2544 -95.1644 190° South 452 520 34,000  Level Kansas City Center
03:55PM 39.1272 -95.1917 189° South 444 511 34,000  Level Kansas City Center
03:58PM 38.7531 -95.2719 190° South 443 510 34,000  Level Kansas City Center
04:01PM 38.3900 -95.3492 189° South 441 507 34,000  Level Kansas City Center
04:04PM 37.9983 -95.4256 188° South 446 513 34,000  Level Kansas City Center
04:05PM 37.8869 -95.4492 189° South 445 512 34,000  Level Kansas City Center
04:06PM 37.7400 -95.4792 189° South 445 512 34,000  Level Kansas City Center
04:07PM 37.7922 -95.4635 189° South  Level FlightAware Approximate
04:07PM 37.6164 -95.5053 189° South 445 512 34,000  Level Kansas City Center
04:10PM 37.3722 -95.5556 189° South 448 516 34,000  Level Fort Worth Center
04:10PM 37.4393 -95.5349 188° South  Level FlightAware Approximate
04:11PM 37.2475 -95.5681 185° South 448 516 34,000  Level Fort Worth Center
04:12PM 37.1231 -95.5639 178° South 446 513 34,000  Level Kansas City Center
04:13PM 36.9717 -95.5592 179° South 449 517 34,000  Level Kansas City Center
04:14PM 36.8472 -95.5581 180° South 449 517 34,000  Level Kansas City Center
04:15PM 36.7222 -95.5569 180° South 449 517 34,000  Level Kansas City Center
04:16PM 36.5997 -95.5550 179° South 449 517 34,000  Level Kansas City Center
04:17PM 36.4761 -95.5539 180° South 449 517 34,000  Level Kansas City Center
04:18PM 36.3469 -95.5481 178° South 450 518 34,000  Level Kansas City Center
04:19PM 36.1972 -95.5467 180° South 451 519 34,000  Level Kansas City Center
04:21PM 35.9547 -95.5411 179° South 449 517 34,000  Level Kansas City Center
04:23PM 35.6811 -95.5253 177° South 450 518 34,000  Level Fort Worth Center
04:25PM 35.4308 -95.5111 177° South 450 518 34,000  Level Fort Worth Center
04:26PM 35.3058 -95.5039 177° South 450 518 34,000  Level Fort Worth Center
04:27PM 35.1811 -95.4978 178° South 448 516 34,000  Level Fort Worth Center
04:28PM 35.0558 -95.4914 178° South 448 516 34,000 -420 Level Fort Worth Center
04:29PM 34.9044 -95.4844 178° South 449 517 33,200 -780 Descending Fort Worth Center
04:30PM 34.7800 -95.4633 172° South 452 520 32,400 -960 Descending Fort Worth Center
04:31PM 34.6606 -95.4325 168° South 438 504 31,300 -1,200 Descending Fort Worth Center
04:32PM 34.5500 -95.4067 169° South 422 486 30,000 -1,500 Descending Fort Worth Center
04:33PM 34.4356 -95.3825 170° South 421 484 28,200 -1,740 Descending Fort Worth Center
04:34PM 34.3103 -95.4019 187° South 407 468 26,500 -1,800 Descending Fort Worth Center
04:35PM 34.2164 -95.5025 222° Southwest 449 517 24,600 -1,260 Descending Fort Worth Center
04:36PM 34.1131 -95.6161 222° Southwest 450 518 24,000 -300 Descending Fort Worth Center
04:37PM 34.0242 -95.7136 222° Southwest 450 518 24,000  Level Fort Worth Center
04:38PM 33.9300 -95.8153 222° Southwest 451 519 24,000 -240 Level Fort Worth Center
04:41PM 33.7217 -96.0361 220° Southwest 455 524 23,300 -1,140 Descending Fort Worth Center
04:42PM 33.6294 -96.1372 222° Southwest 453 521 20,600 -2,700 Descending Fort Worth Center
04:43PM 33.5325 -96.2406 222° Southwest 435 501 17,800 -2,160 Descending Fort Worth Center
04:44PM 33.4508 -96.3369 225° Southwest 410 472 16,200 -1,260 Descending Fort Worth Center
04:45PM 33.3797 -96.4225 225° Southwest 363 418 15,200 -1,500 Descending Fort Worth Center
04:46PM 33.3069 -96.5094 225° Southwest 345 397 13,200 -1,860 Descending Fort Worth Center
04:47PM 33.2422 -96.5861 225° Southwest 332 382 11,400 -780 Descending Fort Worth Center
04:49PM 33.1167 -96.7167 221° Southwest 293 337 11,000 -180 Descending Dallas / Fort Worth TRACON
04:50PM 33.0536 -96.7958 226° Southwest 294 338 11,000  Level Fort Worth Center
04:51PM 33.0014 -96.8664 229° Southwest 264 304 11,000 -480 Level Fort Worth Center
04:52PM 32.9464 -96.9067 212° Southwest 250 288 10,100 -1,260 Descending Fort Worth Center
04:54PM 32.8064 -96.9075 232° Southwest 242 278 7,200 -1,380 Descending Fort Worth Center
04:55PM 32.7356 -96.9142 185° South 240 276 6,000 -840 Descending Fort Worth Center
04:57PM 32.6500 -96.9667 207° Southwest 225 259 5,000 -720 Descending Dallas / Fort Worth TRACON
04:58PM 32.6833 -97.0333 301° West 228 262 4,100 -960 Descending Dallas / Fort Worth TRACON
04:59PM 32.7500 -97.0167 12° North 224 258 3,100 -1,140 Descending Dallas / Fort Worth TRACON
05:00PM 32.8167 -97.0167 360° North 188 216 1,900 -960 Descending Dallas / Fort Worth TRACON
05:01PM 32.8694 -97.0278 350° North 145 167 800 -780 Descending Fort Worth Center